sensor_id;sensor_type;location;lat;lon;timestamp;pressure;altitude;pressure_sealevel;temperature;humidity
61474;BME280;53694;49.784;30.150;2023-03-31T00:00:18;99177.29;;;4.45;55.55
61474;BME280;53694;49.784;30.150;2023-03-31T00:01:21;99178.08;;;4.45;55.60
61474;BME280;53694;49.784;30.150;2023-03-31T00:02:22;99180.80;;;4.45;55.66
61474;BME280;53694;49.784;30.150;2023-03-31T00:03:24;99178.56;;;4.47;55.54
61474;BME280;53694;49.784;30.150;2023-03-31T00:04:26;99178.22;;;4.49;55.56
61474;BME280;53694;49.784;30.150;2023-03-31T00:05:27;99173.58;;;4.49;55.48
61474;BME280;53694;49.784;30.150;2023-03-31T00:06:31;99173.58;;;4.49;55.59
61474;BME280;53694;49.784;30.150;2023-03-31T00:07:34;99174.37;;;4.50;55.50
61474;BME280;53694;49.784;30.150;2023-03-31T00:08:35;99169.75;;;4.50;55.62
61474;BME280;53694;49.784;30.150;2023-03-31T00:09:36;99164.31;;;4.50;55.44
61474;BME280;53694;49.784;30.150;2023-03-31T00:10:43;99165.89;;;4.51;55.41
61474;BME280;53694;49.784;30.150;2023-03-31T00:11:44;99166.34;;;4.54;55.32
61474;BME280;53694;49.784;30.150;2023-03-31T00:12:45;99160.91;;;4.54;55.32
61474;BME280;53694;49.784;30.150;2023-03-31T00:13:47;99164.11;;;4.56;55.43
61474;BME280;53694;49.784;30.150;2023-03-31T00:14:49;99161.39;;;4.56;55.49
61474;BME280;53694;49.784;30.150;2023-03-31T00:15:56;99159.11;;;4.58;55.59
61474;BME280;53694;49.784;30.150;2023-03-31T00:16:58;99160.25;;;4.57;55.51
61474;BME280;53694;49.784;30.150;2023-03-31T00:17:59;99160.70;;;4.59;55.48
61474;BME280;53694;49.784;30.150;2023-03-31T00:19:01;99151.44;;;4.60;55.35
61474;BME280;53694;49.784;30.150;2023-03-31T00:20:05;99155.73;;;4.61;55.23
61474;BME280;53694;49.784;30.150;2023-03-31T00:21:12;99155.39;;;4.62;55.31
61474;BME280;53694;49.784;30.150;2023-03-31T00:22:15;99147.23;;;4.62;55.43
61474;BME280;53694;49.784;30.150;2023-03-31T00:23:17;99149.16;;;4.62;55.43
61474;BME280;53694;49.784;30.150;2023-03-31T00:24:18;99155.39;;;4.62;55.25
61474;BME280;53694;49.784;30.150;2023-03-31T00:25:20;99159.39;;;4.65;55.29
61474;BME280;53694;49.784;30.150;2023-03-31T00:26:22;99150.44;;;4.64;55.47
61474;BME280;53694;49.784;30.150;2023-03-31T00:27:24;99150.56;;;4.68;55.61
61474;BME280;53694;49.784;30.150;2023-03-31T00:28:26;99151.02;;;4.70;55.45
61474;BME280;53694;49.784;30.150;2023-03-31T00:29:28;99152.59;;;4.71;55.03
61474;BME280;53694;49.784;30.150;2023-03-31T00:30:30;99149.88;;;4.71;55.13
61474;BME280;53694;49.784;30.150;2023-03-31T00:31:32;99147.16;;;4.71;55.32
61474;BME280;53694;49.784;30.150;2023-03-31T00:32:33;99143.64;;;4.70;55.37
61474;BME280;53694;49.784;30.150;2023-03-31T00:33:35;99141.72;;;4.71;55.25
61474;BME280;53694;49.784;30.150;2023-03-31T00:34:36;99146.05;;;4.72;55.07
61474;BME280;53694;49.784;30.150;2023-03-31T00:35:38;99144.12;;;4.72;55.25
61474;BME280;53694;49.784;30.150;2023-03-31T00:36:40;99146.50;;;4.74;55.32
61474;BME280;53694;49.784;30.150;2023-03-31T00:37:41;99141.85;;;4.74;55.22
61474;BME280;53694;49.784;30.150;2023-03-31T00:38:43;99143.78;;;4.74;54.95
61474;BME280;53694;49.784;30.150;2023-03-31T00:39:44;99146.50;;;4.74;54.79
61474;BME280;53694;49.784;30.150;2023-03-31T00:40:46;99141.85;;;4.74;54.91
61474;BME280;53694;49.784;30.150;2023-03-31T00:41:49;99144.25;;;4.76;54.95
61474;BME280;53694;49.784;30.150;2023-03-31T00:42:51;99130.31;;;4.78;55.06
61474;BME280;53694;49.784;30.150;2023-03-31T00:44:13;99128.86;;;4.80;55.15
61474;BME280;53694;49.784;30.150;2023-03-31T00:45:22;99124.20;;;4.81;54.91
61474;BME280;53694;49.784;30.150;2023-03-31T00:46:30;99129.30;;;4.82;54.95
61474;BME280;53694;49.784;30.150;2023-03-31T00:47:29;99118.42;;;4.82;54.46
61474;BME280;53694;49.784;30.150;2023-03-31T00:48:30;99119.56;;;4.81;54.67
61474;BME280;53694;49.784;30.150;2023-03-31T00:49:34;99119.88;;;4.80;54.81
61474;BME280;53694;49.784;30.150;2023-03-31T00:50:57;99118.29;;;4.79;54.95
61474;BME280;53694;49.784;30.150;2023-03-31T00:51:47;99124.08;;;4.77;54.64
61474;BME280;53694;49.784;30.150;2023-03-31T00:52:54;99124.87;;;4.78;54.74
61474;BME280;53694;49.784;30.150;2023-03-31T00:54:00;99121.36;;;4.77;54.56
61474;BME280;53694;49.784;30.150;2023-03-31T00:55:12;99113.98;;;4.78;54.36
61474;BME280;53694;49.784;30.150;2023-03-31T00:56:15;99124.52;;;4.79;54.25
61474;BME280;53694;49.784;30.150;2023-03-31T00:57:17;99122.94;;;4.78;54.04
61474;BME280;53694;49.784;30.150;2023-03-31T00:58:20;99121.36;;;4.77;54.18
61474;BME280;53694;49.784;30.150;2023-03-31T00:59:26;99119.77;;;4.76;53.99
61474;BME280;53694;49.784;30.150;2023-03-31T01:00:28;99112.41;;;4.76;54.13
61474;BME280;53694;49.784;30.150;2023-03-31T01:01:30;99106.17;;;4.76;53.80
61474;BME280;53694;49.784;30.150;2023-03-31T01:02:32;99107.75;;;4.77;53.85
61474;BME280;53694;49.784;30.150;2023-03-31T01:03:34;99101.65;;;4.80;53.86
61474;BME280;53694;49.784;30.150;2023-03-31T01:04:38;99107.09;;;4.80;53.91
61474;BME280;53694;49.784;30.150;2023-03-31T01:05:54;99108.67;;;4.81;53.88
61474;BME280;53694;49.784;30.150;2023-03-31T01:07:12;99104.02;;;4.82;53.75
61474;BME280;53694;49.784;30.150;2023-03-31T01:08:13;99098.45;;;4.78;53.36
61474;BME280;53694;49.784;30.150;2023-03-31T01:09:17;99093.36;;;4.76;53.44
61474;BME280;53694;49.784;30.150;2023-03-31T01:10:20;99095.29;;;4.76;53.40
61474;BME280;53694;49.784;30.150;2023-03-31T01:11:23;99096.08;;;4.76;53.40
61474;BME280;53694;49.784;30.150;2023-03-31T01:12:27;99098.45;;;4.78;53.36
61474;BME280;53694;49.784;30.150;2023-03-31T01:13:29;99084.15;;;4.69;53.37
61474;BME280;53694;49.784;30.150;2023-03-31T01:14:31;99092.88;;;4.74;53.51
61474;BME280;53694;49.784;30.150;2023-03-31T01:15:33;99089.38;;;4.74;53.37
61474;BME280;53694;49.784;30.150;2023-03-31T01:16:35;99094.37;;;4.72;53.44
61474;BME280;53694;49.784;30.150;2023-03-31T01:17:37;99089.24;;;4.70;53.62
61474;BME280;53694;49.784;30.150;2023-03-31T01:18:39;99098.20;;;4.71;53.78
61474;BME280;53694;49.784;30.150;2023-03-31T01:25:20;99088.33;;;4.66;54.28
61474;BME280;53694;49.784;30.150;2023-03-31T01:34:11;99081.25;;;4.53;55.17
61474;BME280;53694;49.784;30.150;2023-03-31T01:35:44;99073.75;;;4.50;55.27
61474;BME280;53694;49.784;30.150;2023-03-31T01:38:31;99076.38;;;4.46;55.48
61474;BME280;53694;49.784;30.150;2023-03-31T01:42:57;99065.23;;;4.39;55.89
61474;BME280;53694;49.784;30.150;2023-03-31T01:44:19;99070.67;;;4.39;56.05
61474;BME280;53694;49.784;30.150;2023-03-31T01:47:06;99067.47;;;4.37;56.15
61474;BME280;53694;49.784;30.150;2023-03-31T01:48:14;99070.54;;;4.36;56.20
61474;BME280;53694;49.784;30.150;2023-03-31T01:50:46;99065.45;;;4.34;56.02
61474;BME280;53694;49.784;30.150;2023-03-31T01:51:52;99064.97;;;4.32;56.12
61474;BME280;53694;49.784;30.150;2023-03-31T01:53:01;99064.97;;;4.32;56.13
61474;BME280;53694;49.784;30.150;2023-03-31T01:54:18;99070.41;;;4.32;56.16
61474;BME280;53694;49.784;30.150;2023-03-31T01:55:28;99059.53;;;4.32;56.09
61474;BME280;53694;49.784;30.150;2023-03-31T01:56:37;99052.52;;;4.31;56.11
61474;BME280;53694;49.784;30.150;2023-03-31T01:58:53;99053.30;;;4.32;56.15
61474;BME280;53694;49.784;30.150;2023-03-31T02:00:10;99046.28;;;4.31;56.16
61474;BME280;53694;49.784;30.150;2023-03-31T02:01:24;99057.16;;;4.31;56.29
61474;BME280;53694;49.784;30.150;2023-03-31T02:02:34;99047.08;;;4.31;56.34
61474;BME280;53694;49.784;30.150;2023-03-31T02:03:37;99050.92;;;4.30;56.49
61474;BME280;53694;49.784;30.150;2023-03-31T02:04:46;99048.21;;;4.30;56.51
61474;BME280;53694;49.784;30.150;2023-03-31T02:05:54;99052.52;;;4.31;56.43
61474;BME280;53694;49.784;30.150;2023-03-31T02:07:00;99044.36;;;4.31;56.49
61474;BME280;53694;49.784;30.150;2023-03-31T02:08:08;99040.84;;;4.31;56.61
61474;BME280;53694;49.784;30.150;2023-03-31T02:09:13;99037.34;;;4.30;56.69
61474;BME280;53694;49.784;30.150;2023-03-31T02:10:17;99037.66;;;4.29;56.81
61474;BME280;53694;49.784;30.150;2023-03-31T02:11:20;99036.06;;;4.28;57.00
61474;BME280;53694;49.784;30.150;2023-03-31T02:12:25;99031.42;;;4.28;57.10
61474;BME280;53694;49.784;30.150;2023-03-31T02:13:28;99031.42;;;4.28;57.13
61474;BME280;53694;49.784;30.150;2023-03-31T02:14:32;99027.13;;;4.27;57.17
61474;BME280;53694;49.784;30.150;2023-03-31T02:15:59;99020.89;;;4.26;57.18
61474;BME280;53694;49.784;30.150;2023-03-31T02:17:02;99026.67;;;4.25;57.31
61474;BME280;53694;49.784;30.150;2023-03-31T02:18:06;99022.69;;;4.22;57.37
61474;BME280;53694;49.784;30.150;2023-03-31T02:19:09;99023.03;;;4.21;57.44
61474;BME280;53694;49.784;30.150;2023-03-31T02:20:13;99031.50;;;4.19;57.47
61474;BME280;53694;49.784;30.150;2023-03-31T02:21:16;99023.69;;;4.18;57.58
61474;BME280;53694;49.784;30.150;2023-03-31T02:22:20;99021.63;;;4.15;57.88
61474;BME280;53694;49.784;30.150;2023-03-31T02:23:27;99012.24;;;4.12;58.29
61474;BME280;53694;49.784;30.150;2023-03-31T02:24:30;99016.86;;;4.12;57.94
61474;BME280;53694;49.784;30.150;2023-03-31T02:25:35;99012.90;;;4.09;58.03
61474;BME280;53694;49.784;30.150;2023-03-31T02:26:41;99010.50;;;4.08;58.15
61474;BME280;53694;49.784;30.150;2023-03-31T02:27:46;99006.67;;;4.09;58.31
61474;BME280;53694;49.784;30.150;2023-03-31T02:28:49;99012.11;;;4.09;58.42
61474;BME280;53694;49.784;30.150;2023-03-31T02:29:51;99000.77;;;4.07;58.44
61474;BME280;53694;49.784;30.150;2023-03-31T02:32:27;98998.25;;;4.01;58.68
61474;BME280;53694;49.784;30.150;2023-03-31T02:33:27;98992.03;;;4.01;58.77
61474;BME280;53694;49.784;30.150;2023-03-31T02:34:29;98996.20;;;3.98;58.88
61474;BME280;53694;49.784;30.150;2023-03-31T02:35:32;98991.55;;;3.99;58.73
61474;BME280;53694;49.784;30.150;2023-03-31T02:36:34;98986.46;;;3.97;58.92
61474;BME280;53694;49.784;30.150;2023-03-31T02:37:37;98997.67;;;3.96;58.69
61474;BME280;53694;49.784;30.150;2023-03-31T02:38:45;98996.88;;;3.95;58.69
61474;BME280;53694;49.784;30.150;2023-03-31T02:39:50;98993.03;;;3.96;58.68
61474;BME280;53694;49.784;30.150;2023-03-31T02:40:53;98994.16;;;3.95;58.55
61474;BME280;53694;49.784;30.150;2023-03-31T02:41:55;98999.59;;;3.95;58.54
61474;BME280;53694;49.784;30.150;2023-03-31T02:42:57;98995.27;;;3.94;58.46
61474;BME280;53694;49.784;30.150;2023-03-31T02:43:59;98999.59;;;3.95;58.46
61474;BME280;53694;49.784;30.150;2023-03-31T02:45:06;98998.47;;;3.96;58.45
61474;BME280;53694;49.784;30.150;2023-03-31T02:46:09;98993.82;;;3.97;58.41
61474;BME280;53694;49.784;30.150;2023-03-31T02:47:12;98998.47;;;3.96;58.33
61474;BME280;53694;49.784;30.150;2023-03-31T02:48:26;99001.63;;;3.98;58.19
61474;BME280;53694;49.784;30.150;2023-03-31T02:49:29;98996.20;;;3.98;58.38
61474;BME280;53694;49.784;30.150;2023-03-31T02:50:34;98992.38;;;3.99;58.15
61474;BME280;53694;49.784;30.150;2023-03-31T02:55:25;98999.91;;;3.94;58.64
61474;BME280;53694;49.784;30.150;2023-03-31T03:01:50;98981.89;;;3.89;59.23
61474;BME280;53694;49.784;30.150;2023-03-31T03:05:47;98989.12;;;3.85;59.49
61474;BME280;53694;49.784;30.150;2023-03-31T03:07:11;98989.12;;;3.85;59.51
61474;BME280;53694;49.784;30.150;2023-03-31T03:09:56;98987.05;;;3.82;59.62
61474;BME280;53694;49.784;30.150;2023-03-31T03:13:31;98987.74;;;3.79;59.84
61474;BME280;53694;49.784;30.150;2023-03-31T03:15:57;98985.02;;;3.79;59.87
61474;BME280;53694;49.784;30.150;2023-03-31T03:17:08;98979.91;;;3.78;59.97
61474;BME280;53694;49.784;30.150;2023-03-31T03:18:09;98982.97;;;3.76;60.14
61474;BME280;53694;49.784;30.150;2023-03-31T03:19:21;98984.55;;;3.77;60.20
61474;BME280;53694;49.784;30.150;2023-03-31T03:20:20;98977.53;;;3.76;60.36
61474;BME280;53694;49.784;30.150;2023-03-31T03:21:22;98973.23;;;3.75;60.45
61474;BME280;53694;49.784;30.150;2023-03-31T03:22:24;98977.53;;;3.76;60.48
61474;BME280;53694;49.784;30.150;2023-03-31T03:23:25;98973.69;;;3.77;60.44
61474;BME280;53694;49.784;30.150;2023-03-31T03:24:27;98974.81;;;3.76;60.59
61474;BME280;53694;49.784;30.150;2023-03-31T03:25:28;98980.25;;;3.76;60.63
61474;BME280;53694;49.784;30.150;2023-03-31T03:26:30;98978.66;;;3.75;60.77
61474;BME280;53694;49.784;30.150;2023-03-31T03:27:31;98972.89;;;3.76;60.76
61474;BME280;53694;49.784;30.150;2023-03-31T03:28:33;98972.89;;;3.76;60.86
61474;BME280;53694;49.784;30.150;2023-03-31T03:29:35;98986.16;;;3.78;60.91
61474;BME280;53694;49.784;30.150;2023-03-31T03:30:37;98978.02;;;3.78;60.93
61474;BME280;53694;49.784;30.150;2023-03-31T03:31:39;98978.46;;;3.80;61.06
61474;BME280;53694;49.784;30.150;2023-03-31T03:32:40;98978.02;;;3.78;61.20
61474;BME280;53694;49.784;30.150;2023-03-31T03:33:42;98983.89;;;3.80;61.37
61474;BME280;53694;49.784;30.150;2023-03-31T03:34:44;98975.61;;;3.76;61.41
61474;BME280;53694;49.784;30.150;2023-03-31T03:35:45;98974.81;;;3.76;61.50
61474;BME280;53694;49.784;30.150;2023-03-31T03:36:47;98974.37;;;3.74;61.45
61474;BME280;53694;49.784;30.150;2023-03-31T03:37:48;98983.62;;;3.73;61.55
61474;BME280;53694;49.784;30.150;2023-03-31T03:38:50;98973.89;;;3.72;61.63
61474;BME280;53694;49.784;30.150;2023-03-31T03:39:51;98971.52;;;3.70;61.61
61474;BME280;53694;49.784;30.150;2023-03-31T03:40:53;98968.01;;;3.70;61.59
61474;BME280;53694;49.784;30.150;2023-03-31T03:41:54;98978.88;;;3.70;61.69
61474;BME280;53694;49.784;30.150;2023-03-31T03:42:56;98978.05;;;3.69;61.71
61474;BME280;53694;49.784;30.150;2023-03-31T03:43:59;98973.44;;;3.70;61.65
61474;BME280;53694;49.784;30.150;2023-03-31T03:45:00;98975.02;;;3.71;61.75
61474;BME280;53694;49.784;30.150;2023-03-31T03:46:03;98977.39;;;3.72;61.71
61474;BME280;53694;49.784;30.150;2023-03-31T03:47:04;98978.19;;;3.73;61.72
61474;BME280;53694;49.784;30.150;2023-03-31T03:48:06;98978.19;;;3.73;61.66
61474;BME280;53694;49.784;30.150;2023-03-31T03:49:08;98973.55;;;3.73;61.79
61474;BME280;53694;49.784;30.150;2023-03-31T03:50:10;98972.44;;;3.74;61.74
61474;BME280;53694;49.784;30.150;2023-03-31T03:51:12;98974.81;;;3.76;61.74
61474;BME280;53694;49.784;30.150;2023-03-31T03:52:14;98973.69;;;3.77;61.70
61474;BME280;53694;49.784;30.150;2023-03-31T03:53:15;98970.97;;;3.77;61.79
61474;BME280;53694;49.784;30.150;2023-03-31T03:54:17;98969.86;;;3.78;61.74
61474;BME280;53694;49.784;30.150;2023-03-31T03:55:19;98973.69;;;3.77;61.78
61474;BME280;53694;49.784;30.150;2023-03-31T03:56:20;98972.23;;;3.80;61.58
61474;BME280;53694;49.784;30.150;2023-03-31T03:57:22;98971.10;;;3.81;61.63
61474;BME280;53694;49.784;30.150;2023-03-31T03:58:24;98980.04;;;3.81;61.50
61474;BME280;53694;49.784;30.150;2023-03-31T03:59:25;98969.17;;;3.81;61.34
61474;BME280;53694;49.784;30.150;2023-03-31T04:00:27;98967.73;;;3.84;61.29
61474;BME280;53694;49.784;30.150;2023-03-31T04:01:29;98960.38;;;3.84;61.29
61474;BME280;53694;49.784;30.150;2023-03-31T04:02:30;98962.75;;;3.86;61.29
61474;BME280;53694;49.784;30.150;2023-03-31T04:03:32;98960.82;;;3.86;61.14
61474;BME280;53694;49.784;30.150;2023-03-31T04:04:34;98964.02;;;3.88;60.84
61474;BME280;53694;49.784;30.150;2023-03-31T04:05:35;98965.59;;;3.89;60.70
61474;BME280;53694;49.784;30.150;2023-03-31T04:06:37;98956.31;;;3.90;60.75
61474;BME280;53694;49.784;30.150;2023-03-31T04:07:38;98961.75;;;3.90;60.75
61474;BME280;53694;49.784;30.150;2023-03-31T04:08:40;98960.64;;;3.91;60.73
61474;BME280;53694;49.784;30.150;2023-03-31T04:09:42;98962.22;;;3.92;60.64
61474;BME280;53694;49.784;30.150;2023-03-31T04:10:47;98961.09;;;3.93;60.64
61474;BME280;53694;49.784;30.150;2023-03-31T04:11:49;98955.66;;;3.93;60.45
61474;BME280;53694;49.784;30.150;2023-03-31T04:12:51;98950.22;;;3.93;60.47
61474;BME280;53694;49.784;30.150;2023-03-31T04:13:52;98949.43;;;3.93;60.37
61474;BME280;53694;49.784;30.150;2023-03-31T04:14:54;98957.13;;;3.91;60.41
61474;BME280;53694;49.784;30.150;2023-03-31T04:15:55;98950.88;;;3.90;60.56
61474;BME280;53694;49.784;30.150;2023-03-31T04:16:57;98943.08;;;3.89;60.66
61474;BME280;53694;49.784;30.150;2023-03-31T04:17:58;98947.38;;;3.90;60.86
61474;BME280;53694;49.784;30.150;2023-03-31T04:19:00;98943.55;;;3.91;60.68
61474;BME280;53694;49.784;30.150;2023-03-31T04:20:05;98940.83;;;3.91;60.60
61474;BME280;53694;49.784;30.150;2023-03-31T04:21:14;98939.22;;;3.90;60.66
61474;BME280;53694;49.784;30.150;2023-03-31T04:22:16;98945.45;;;3.90;60.63
61474;BME280;53694;49.784;30.150;2023-03-31T04:23:17;98941.94;;;3.90;60.70
61474;BME280;53694;49.784;30.150;2023-03-31T04:24:19;98934.58;;;3.90;60.64
61474;BME280;53694;49.784;30.150;2023-03-31T04:25:21;98932.20;;;3.89;60.66
61474;BME280;53694;49.784;30.150;2023-03-31T04:26:24;98939.56;;;3.88;60.76
61474;BME280;53694;49.784;30.150;2023-03-31T04:27:27;98938.43;;;3.89;60.82
61474;BME280;53694;49.784;30.150;2023-03-31T04:28:28;98926.77;;;3.89;60.71
61474;BME280;53694;49.784;30.150;2023-03-31T04:29:30;98931.41;;;3.88;60.76
61474;BME280;53694;49.784;30.150;2023-03-31T04:30:32;98934.48;;;3.87;60.82
61474;BME280;53694;49.784;30.150;2023-03-31T04:31:34;98921.21;;;3.85;61.05
61474;BME280;53694;49.784;30.150;2023-03-31T04:32:35;98933.21;;;3.84;60.96
61474;BME280;53694;49.784;30.150;2023-03-31T04:33:37;98932.42;;;3.84;61.13
61474;BME280;53694;49.784;30.150;2023-03-31T04:34:38;98924.59;;;3.82;61.22
61474;BME280;53694;49.784;30.150;2023-03-31T04:35:40;98924.27;;;3.84;61.23
61474;BME280;53694;49.784;30.150;2023-03-31T04:36:44;98927.30;;;3.82;61.21
61474;BME280;53694;49.784;30.150;2023-03-31T04:37:47;98921.87;;;3.82;61.39
61474;BME280;53694;49.784;30.150;2023-03-31T04:38:50;98921.08;;;3.82;61.33
61474;BME280;53694;49.784;30.150;2023-03-31T04:39:51;98925.72;;;3.81;61.51
61474;BME280;53694;49.784;30.150;2023-03-31T04:40:53;98919.16;;;3.82;61.55
61474;BME280;53694;49.784;30.150;2023-03-31T04:41:55;98923.48;;;3.83;61.65
61474;BME280;53694;49.784;30.150;2023-03-31T04:42:57;98923.48;;;3.83;61.59
61474;BME280;53694;49.784;30.150;2023-03-31T04:43:58;98919.63;;;3.84;61.60
61474;BME280;53694;49.784;30.150;2023-03-31T04:45:00;98925.85;;;3.85;61.68
61474;BME280;53694;49.784;30.150;2023-03-31T04:46:02;98924.27;;;3.84;61.70
61474;BME280;53694;49.784;30.150;2023-03-31T04:47:03;98919.63;;;3.84;61.86
61474;BME280;53694;49.784;30.150;2023-03-31T04:48:06;98919.63;;;3.84;61.91
61474;BME280;53694;49.784;30.150;2023-03-31T04:49:07;98908.77;;;3.84;62.01
61474;BME280;53694;49.784;30.150;2023-03-31T04:50:10;98914.98;;;3.85;62.12
61474;BME280;53694;49.784;30.150;2023-03-31T04:51:12;98914.20;;;3.84;62.25
61474;BME280;53694;49.784;30.150;2023-03-31T04:52:13;98915.78;;;3.85;62.23
61474;BME280;53694;49.784;30.150;2023-03-31T04:53:15;98909.55;;;3.85;62.33
61474;BME280;53694;49.784;30.150;2023-03-31T04:54:16;98904.91;;;3.85;62.32
61474;BME280;53694;49.784;30.150;2023-03-31T04:55:18;98908.77;;;3.84;62.29
61474;BME280;53694;49.784;30.150;2023-03-31T04:56:19;98902.20;;;3.85;62.40
61474;BME280;53694;49.784;30.150;2023-03-31T04:57:21;98907.31;;;3.87;62.33
61474;BME280;53694;49.784;30.150;2023-03-31T04:58:23;98904.59;;;3.87;62.48
61474;BME280;53694;49.784;30.150;2023-03-31T04:59:25;98896.10;;;3.88;62.59
61474;BME280;53694;49.784;30.150;2023-03-31T05:00:26;98891.94;;;3.91;62.50
61474;BME280;53694;49.784;30.150;2023-03-31T05:01:29;98895.89;;;3.93;62.47
61474;BME280;53694;49.784;30.150;2023-03-31T05:02:31;98888.53;;;3.94;62.37
61474;BME280;53694;49.784;30.150;2023-03-31T05:03:33;98890.58;;;3.97;62.36
61474;BME280;53694;49.784;30.150;2023-03-31T05:04:34;98889.13;;;3.99;62.18
61474;BME280;53694;49.784;30.150;2023-03-31T05:05:36;98886.86;;;4.01;62.11
61474;BME280;53694;49.784;30.150;2023-03-31T05:06:38;98884.62;;;4.04;62.06
61474;BME280;53694;49.784;30.150;2023-03-31T05:07:40;98880.77;;;4.05;61.95
61474;BME280;53694;49.784;30.150;2023-03-31T05:08:42;98876.12;;;4.05;61.99
61474;BME280;53694;49.784;30.150;2023-03-31T05:09:43;98878.48;;;4.07;62.02
61474;BME280;53694;49.784;30.150;2023-03-31T05:10:45;98875.11;;;4.10;61.71
61474;BME280;53694;49.784;30.150;2023-03-31T05:11:46;98874.76;;;4.11;61.67
61474;BME280;53694;49.784;30.150;2023-03-31T05:12:48;98878.27;;;4.12;61.59
61474;BME280;53694;49.784;30.150;2023-03-31T05:13:50;98882.59;;;4.13;61.41
61474;BME280;53694;49.784;30.150;2023-03-31T05:14:51;98874.09;;;4.14;61.46
61474;BME280;53694;49.784;30.150;2023-03-31T05:15:53;98873.75;;;4.16;61.38
61474;BME280;53694;49.784;30.150;2023-03-31T05:16:55;98871.03;;;4.16;61.12
61474;BME280;53694;49.784;30.150;2023-03-31T05:17:57;98869.58;;;4.18;61.24
61474;BME280;53694;49.784;30.150;2023-03-31T05:18:59;98870.84;;;4.21;61.06
61474;BME280;53694;49.784;30.150;2023-03-31T05:20:00;98872.86;;;4.24;60.92
61474;BME280;53694;49.784;30.150;2023-03-31T05:21:17;98875.26;;;4.25;60.67
61474;BME280;53694;49.784;30.150;2023-03-31T05:22:19;98874.91;;;4.27;60.46
61474;BME280;53694;49.784;30.150;2023-03-31T05:23:20;98871.52;;;4.30;60.41
61474;BME280;53694;49.784;30.150;2023-03-31T05:24:22;98870.39;;;4.31;60.39
61474;BME280;53694;49.784;30.150;2023-03-31T05:25:24;98867.79;;;4.35;60.28
61474;BME280;53694;49.784;30.150;2023-03-31T05:26:25;98870.16;;;4.36;60.18
61474;BME280;53694;49.784;30.150;2023-03-31T05:27:27;98859.28;;;4.36;60.38
61474;BME280;53694;49.784;30.150;2023-03-31T05:28:28;98862.48;;;4.38;60.47
61474;BME280;53694;49.784;30.150;2023-03-31T05:29:30;98864.05;;;4.39;60.03
61474;BME280;53694;49.784;30.150;2023-03-31T05:30:32;98854.76;;;4.40;59.79
61474;BME280;53694;49.784;30.150;2023-03-31T05:31:33;98857.95;;;4.42;59.58
61474;BME280;53694;49.784;30.150;2023-03-31T05:32:35;98861.11;;;4.44;59.46
61474;BME280;53694;49.784;30.150;2023-03-31T05:33:36;98859.17;;;4.45;59.10
61474;BME280;53694;49.784;30.150;2023-03-31T05:34:38;98851.02;;;4.45;59.20
61474;BME280;53694;49.784;30.150;2023-03-31T05:35:40;98852.28;;;4.47;59.17
61474;BME280;53694;49.784;30.150;2023-03-31T05:36:41;98856.58;;;4.48;59.14
61474;BME280;53694;49.784;30.150;2023-03-31T05:37:43;98848.19;;;4.54;58.51
61474;BME280;53694;49.784;30.150;2023-03-31T05:38:45;98854.42;;;4.54;58.17
61474;BME280;53694;49.784;30.150;2023-03-31T05:39:47;98848.98;;;4.54;57.90
61474;BME280;53694;49.784;30.150;2023-03-31T05:40:48;98856.81;;;4.56;58.15
61474;BME280;53694;49.784;30.150;2023-03-31T05:41:50;98847.95;;;4.59;58.19
61474;BME280;53694;49.784;30.150;2023-03-31T05:42:51;98844.56;;;4.62;58.24
61474;BME280;53694;49.784;30.150;2023-03-31T05:43:53;98847.87;;;4.67;58.01
61474;BME280;53694;49.784;30.150;2023-03-31T05:44:54;98851.81;;;4.70;57.74
61474;BME280;53694;49.784;30.150;2023-03-31T05:45:56;98852.28;;;4.72;57.44
61474;BME280;53694;49.784;30.150;2023-03-31T05:46:57;98855.09;;;4.75;57.58
61474;BME280;53694;49.784;30.150;2023-03-31T05:47:59;98851.38;;;4.80;57.63
61474;BME280;53694;49.784;30.150;2023-03-31T05:49:00;98855.78;;;4.85;57.60
61474;BME280;53694;49.784;30.150;2023-03-31T05:50:03;98846.59;;;4.89;57.49
61474;BME280;53694;49.784;30.150;2023-03-31T05:51:05;98852.15;;;4.93;57.23
61474;BME280;53694;49.784;30.150;2023-03-31T05:52:07;98849.51;;;4.96;57.10
61474;BME280;53694;49.784;30.150;2023-03-31T05:53:09;98839.53;;;5.00;57.20
61474;BME280;53694;49.784;30.150;2023-03-31T05:54:11;98844.30;;;5.04;56.99
61474;BME280;53694;49.784;30.150;2023-03-31T05:55:13;98845.19;;;5.08;56.97
61474;BME280;53694;49.784;30.150;2023-03-31T05:56:15;98842.91;;;5.10;56.67
61474;BME280;53694;49.784;30.150;2023-03-31T05:57:16;98830.91;;;5.11;56.14
61474;BME280;53694;49.784;30.150;2023-03-31T05:58:18;98841.44;;;5.12;56.06
61474;BME280;53694;49.784;30.150;2023-03-31T05:59:19;98840.30;;;5.13;56.17
61474;BME280;53694;49.784;30.150;2023-03-31T06:00:21;98840.65;;;5.12;56.42
61474;BME280;53694;49.784;30.150;2023-03-31T06:01:23;98843.80;;;5.14;56.49
61474;BME280;53694;49.784;30.150;2023-03-31T06:02:24;98840.41;;;5.17;56.73
61474;BME280;53694;49.784;30.150;2023-03-31T06:03:26;98844.81;;;5.21;56.99
61474;BME280;53694;49.784;30.150;2023-03-31T06:04:27;98845.38;;;5.27;56.92
61474;BME280;53694;49.784;30.150;2023-03-31T06:05:29;98851.37;;;5.33;56.70
61474;BME280;53694;49.784;30.150;2023-03-31T06:06:31;98846.92;;;5.40;56.43
61474;BME280;53694;49.784;30.150;2023-03-31T06:07:33;98844.38;;;5.47;55.66
61474;BME280;53694;49.784;30.150;2023-03-31T06:08:35;98841.08;;;5.54;55.41
61474;BME280;53694;49.784;30.150;2023-03-31T06:09:36;98842.08;;;5.62;54.98
61474;BME280;53694;49.784;30.150;2023-03-31T06:10:38;98838.41;;;5.70;54.74
61474;BME280;53694;49.784;30.150;2023-03-31T06:11:39;98835.06;;;5.76;54.81
61474;BME280;53694;49.784;30.150;2023-03-31T06:12:41;98832.02;;;5.78;54.05
61474;BME280;53694;49.784;30.150;2023-03-31T06:13:43;98834.02;;;5.81;53.88
61474;BME280;53694;49.784;30.150;2023-03-31T06:14:45;98837.20;;;5.83;53.57
61474;BME280;53694;49.784;30.150;2023-03-31T06:15:55;98836.52;;;5.86;53.54
61474;BME280;53694;49.784;30.150;2023-03-31T06:16:57;98830.34;;;5.89;52.87